Main page
METAR-TAF:

METAR-TAF

Airports :

Mont-De-Marsan, France

latitude: 43-55N, longitude: 000-30W, elevation: 62 m

Current weather observation

The report was made 10 minutes ago, at 07:00 UTC
Calm wind
Temperature 0°C
Humidity 100%
Pressure 1027 hPa
Visibility: 1000 m
mist

METAR: LFBM 180700Z AUTO 00000KT 1100 1000 R27/1400D BR VV/// M00/M00 Q1027 TEMPO 0500 FG BECMG NSC

Time: 08:10 (07:10 UTC)

Forecast

The report was made 5 hours and 10 minutes ago, at 02:00 UTC
Forecast valid from 18 at 03 UTC to 19 at 03 UTC
Wind 5 kt from the West
Visibility 10 km or more
no clouds below 1500 m and no cumulonimbus
Temporary
from 18 at 03 UTC to 18 at 09 UTC
Wind 2 kt from variable directions
Visibility: 0800 m
patches of fog
Probability 30% :
Temporary
from 18 at 03 UTC to 18 at 08 UTC
Visibility: 0500 m
fog
Temporary
from 19 at 00 UTC to 19 at 03 UTC
Visibility: 3000 m
mist

TAF: LFBM 180200Z 1803/1903 28005KT CAVOK TEMPO 1803/1809 VRB02KT 0800 BCFG PROB30 TEMPO 1803/1808 0500 FG VV/// TEMPO 1900/1903 3000 BR

Weather observations and forecasts of more than 4000 airports (METAR and TAF reports).

The available stations are represented by yellow and red dots on the map.

Hover mouse over dot to see the name of the station.

Then click to see weather observations and forecasts.

To change the map : click on the green buttons with a black cross to zoom in, on the green button with a dash to zoom out, or on the green arrows for adjacent maps.


METAR-TAF: